sensor_id;sensor_type;location;lat;lon;timestamp;P1;durP1;ratioP1;P2;durP2;ratioP2
69979;SDS011;57318;56.232;43.944;2023-04-09T00:01:25;8.43;;;4.90;;
69979;SDS011;57318;56.232;43.944;2023-04-09T00:03:51;7.53;;;4.63;;
69979;SDS011;57318;56.232;43.944;2023-04-09T00:06:16;8.77;;;4.13;;
69979;SDS011;57318;56.232;43.944;2023-04-09T00:08:42;10.03;;;4.80;;
69979;SDS011;57318;56.232;43.944;2023-04-09T00:11:08;10.30;;;4.40;;
69979;SDS011;57318;56.232;43.944;2023-04-09T00:13:33;10.60;;;4.63;;
69979;SDS011;57318;56.232;43.944;2023-04-09T00:15:59;9.10;;;4.60;;
69979;SDS011;57318;56.232;43.944;2023-04-09T00:18:25;9.50;;;4.40;;
69979;SDS011;57318;56.232;43.944;2023-04-09T00:20:51;8.47;;;4.37;;
69979;SDS011;57318;56.232;43.944;2023-04-09T00:23:16;7.93;;;4.27;;
69979;SDS011;57318;56.232;43.944;2023-04-09T00:25:42;6.10;;;4.00;;
69979;SDS011;57318;56.232;43.944;2023-04-09T00:28:07;16.37;;;4.67;;
69979;SDS011;57318;56.232;43.944;2023-04-09T00:30:33;11.93;;;4.43;;
69979;SDS011;57318;56.232;43.944;2023-04-09T00:32:59;8.47;;;4.00;;
69979;SDS011;57318;56.232;43.944;2023-04-09T00:35:25;9.50;;;4.10;;
69979;SDS011;57318;56.232;43.944;2023-04-09T00:37:50;7.77;;;4.47;;
69979;SDS011;57318;56.232;43.944;2023-04-09T00:40:16;9.33;;;4.53;;
69979;SDS011;57318;56.232;43.944;2023-04-09T00:42:42;9.07;;;4.40;;
69979;SDS011;57318;56.232;43.944;2023-04-09T00:45:07;11.53;;;4.33;;
69979;SDS011;57318;56.232;43.944;2023-04-09T00:47:34;8.00;;;4.10;;
69979;SDS011;57318;56.232;43.944;2023-04-09T00:50:00;8.25;;;4.35;;
69979;SDS011;57318;56.232;43.944;2023-04-09T00:52:27;8.80;;;3.65;;
69979;SDS011;57318;56.232;43.944;2023-04-09T00:54:56;9.85;;;4.32;;
69979;SDS011;57318;56.232;43.944;2023-04-09T00:57:24;8.73;;;4.30;;
69979;SDS011;57318;56.232;43.944;2023-04-09T00:59:53;7.78;;;3.88;;
69979;SDS011;57318;56.232;43.944;2023-04-09T01:02:18;7.47;;;3.90;;
69979;SDS011;57318;56.232;43.944;2023-04-09T01:04:44;7.83;;;3.70;;
69979;SDS011;57318;56.232;43.944;2023-04-09T01:15:09;7.38;;;3.53;;
69979;SDS011;57318;56.232;43.944;2023-04-09T01:17:43;9.70;;;4.07;;
69979;SDS011;57318;56.232;43.944;2023-04-09T01:20:21;6.20;;;3.55;;
69979;SDS011;57318;56.232;43.944;2023-04-09T01:29:01;9.43;;;3.70;;
69979;SDS011;57318;56.232;43.944;2023-04-09T01:31:38;9.35;;;4.07;;
69979;SDS011;57318;56.232;43.944;2023-04-09T01:34:14;8.27;;;3.70;;
69979;SDS011;57318;56.232;43.944;2023-04-09T01:36:51;8.48;;;3.70;;
69979;SDS011;57318;56.232;43.944;2023-04-09T01:39:31;9.15;;;3.88;;
69979;SDS011;57318;56.232;43.944;2023-04-09T01:41:58;9.38;;;4.15;;
69979;SDS011;57318;56.232;43.944;2023-04-09T01:44:30;9.07;;;3.70;;
69979;SDS011;57318;56.232;43.944;2023-04-09T01:47:01;8.80;;;3.85;;
69979;SDS011;57318;56.232;43.944;2023-04-09T01:49:27;7.53;;;3.65;;
69979;SDS011;57318;56.232;43.944;2023-04-09T01:51:53;8.40;;;4.30;;
69979;SDS011;57318;56.232;43.944;2023-04-09T01:54:19;6.97;;;3.78;;
69979;SDS011;57318;56.232;43.944;2023-04-09T01:56:45;6.10;;;3.60;;
69979;SDS011;57318;56.232;43.944;2023-04-09T01:59:12;8.20;;;3.92;;
69979;SDS011;57318;56.232;43.944;2023-04-09T02:01:40;7.55;;;3.80;;
69979;SDS011;57318;56.232;43.944;2023-04-09T02:04:14;7.38;;;3.60;;
69979;SDS011;57318;56.232;43.944;2023-04-09T02:09:32;8.05;;;4.00;;
69979;SDS011;57318;56.232;43.944;2023-04-09T02:12:05;7.65;;;4.13;;
69979;SDS011;57318;56.232;43.944;2023-04-09T02:14:34;8.80;;;4.00;;
69979;SDS011;57318;56.232;43.944;2023-04-09T02:17:02;7.00;;;3.50;;
69979;SDS011;57318;56.232;43.944;2023-04-09T02:19:39;6.90;;;3.60;;
69979;SDS011;57318;56.232;43.944;2023-04-09T02:22:10;9.50;;;4.18;;
69979;SDS011;57318;56.232;43.944;2023-04-09T02:24:36;8.93;;;3.80;;
69979;SDS011;57318;56.232;43.944;2023-04-09T02:27:03;10.03;;;4.17;;
69979;SDS011;57318;56.232;43.944;2023-04-09T02:29:29;9.38;;;4.13;;
69979;SDS011;57318;56.232;43.944;2023-04-09T02:31:55;8.45;;;4.50;;
69979;SDS011;57318;56.232;43.944;2023-04-09T02:34:21;7.40;;;3.77;;
69979;SDS011;57318;56.232;43.944;2023-04-09T02:36:47;7.45;;;3.75;;
69979;SDS011;57318;56.232;43.944;2023-04-09T02:39:13;9.00;;;4.00;;
69979;SDS011;57318;56.232;43.944;2023-04-09T02:41:38;11.40;;;4.07;;
69979;SDS011;57318;56.232;43.944;2023-04-09T02:44:04;7.23;;;3.73;;
69979;SDS011;57318;56.232;43.944;2023-04-09T02:46:29;7.47;;;3.80;;
69979;SDS011;57318;56.232;43.944;2023-04-09T02:48:55;9.13;;;3.67;;
69979;SDS011;57318;56.232;43.944;2023-04-09T02:51:21;6.67;;;3.93;;
69979;SDS011;57318;56.232;43.944;2023-04-09T02:53:46;8.93;;;4.10;;
69979;SDS011;57318;56.232;43.944;2023-04-09T02:56:12;9.83;;;3.50;;
69979;SDS011;57318;56.232;43.944;2023-04-09T02:58:38;10.03;;;4.10;;
69979;SDS011;57318;56.232;43.944;2023-04-09T03:01:03;9.83;;;3.60;;
69979;SDS011;57318;56.232;43.944;2023-04-09T03:03:29;9.07;;;3.93;;
69979;SDS011;57318;56.232;43.944;2023-04-09T03:05:55;7.83;;;3.77;;
69979;SDS011;57318;56.232;43.944;2023-04-09T03:08:21;8.30;;;3.90;;
69979;SDS011;57318;56.232;43.944;2023-04-09T03:10:46;9.20;;;4.23;;
69979;SDS011;57318;56.232;43.944;2023-04-09T03:13:12;9.97;;;4.10;;
69979;SDS011;57318;56.232;43.944;2023-04-09T03:15:38;12.93;;;3.90;;
69979;SDS011;57318;56.232;43.944;2023-04-09T03:18:03;9.30;;;3.53;;
69979;SDS011;57318;56.232;43.944;2023-04-09T03:20:29;7.57;;;3.60;;
69979;SDS011;57318;56.232;43.944;2023-04-09T03:22:55;6.30;;;3.90;;
69979;SDS011;57318;56.232;43.944;2023-04-09T03:25:21;8.20;;;3.57;;
69979;SDS011;57318;56.232;43.944;2023-04-09T03:27:46;7.00;;;3.27;;
69979;SDS011;57318;56.232;43.944;2023-04-09T03:30:12;8.40;;;4.37;;
69979;SDS011;57318;56.232;43.944;2023-04-09T03:32:38;11.73;;;4.27;;
69979;SDS011;57318;56.232;43.944;2023-04-09T03:35:03;8.23;;;3.93;;
69979;SDS011;57318;56.232;43.944;2023-04-09T03:37:29;13.35;;;4.00;;
69979;SDS011;57318;56.232;43.944;2023-04-09T03:39:55;13.13;;;4.22;;
69979;SDS011;57318;56.232;43.944;2023-04-09T03:42:21;9.73;;;3.53;;
69979;SDS011;57318;56.232;43.944;2023-04-09T03:44:48;9.63;;;4.00;;
69979;SDS011;57318;56.232;43.944;2023-04-09T03:47:14;9.03;;;4.03;;
69979;SDS011;57318;56.232;43.944;2023-04-09T03:49:39;8.03;;;4.20;;
69979;SDS011;57318;56.232;43.944;2023-04-09T03:52:05;14.37;;;5.53;;
69979;SDS011;57318;56.232;43.944;2023-04-09T03:54:31;10.90;;;4.72;;
69979;SDS011;57318;56.232;43.944;2023-04-09T03:56:57;10.27;;;4.40;;
69979;SDS011;57318;56.232;43.944;2023-04-09T03:59:23;10.03;;;4.40;;
69979;SDS011;57318;56.232;43.944;2023-04-09T04:01:48;17.87;;;4.93;;
69979;SDS011;57318;56.232;43.944;2023-04-09T04:04:14;21.20;;;5.17;;
69979;SDS011;57318;56.232;43.944;2023-04-09T04:06:40;9.23;;;4.70;;
69979;SDS011;57318;56.232;43.944;2023-04-09T04:09:05;8.77;;;4.07;;
69979;SDS011;57318;56.232;43.944;2023-04-09T04:11:31;9.43;;;3.73;;
69979;SDS011;57318;56.232;43.944;2023-04-09T04:13:57;19.67;;;4.83;;
69979;SDS011;57318;56.232;43.944;2023-04-09T04:16:22;14.13;;;5.10;;
69979;SDS011;57318;56.232;43.944;2023-04-09T04:18:48;15.90;;;4.83;;
69979;SDS011;57318;56.232;43.944;2023-04-09T04:21:14;22.73;;;5.50;;
69979;SDS011;57318;56.232;43.944;2023-04-09T04:23:41;19.23;;;5.25;;
69979;SDS011;57318;56.232;43.944;2023-04-09T04:26:10;12.53;;;5.07;;
69979;SDS011;57318;56.232;43.944;2023-04-09T04:28:39;8.32;;;3.75;;
69979;SDS011;57318;56.232;43.944;2023-04-09T04:31:08;7.28;;;3.30;;
69979;SDS011;57318;56.232;43.944;2023-04-09T04:33:37;7.15;;;3.35;;
69979;SDS011;57318;56.232;43.944;2023-04-09T04:40:57;10.20;;;4.28;;
69979;SDS011;57318;56.232;43.944;2023-04-09T04:43:22;7.90;;;4.17;;
69979;SDS011;57318;56.232;43.944;2023-04-09T04:45:48;11.50;;;4.43;;
69979;SDS011;57318;56.232;43.944;2023-04-09T04:48:14;10.10;;;4.20;;
69979;SDS011;57318;56.232;43.944;2023-04-09T04:50:39;6.47;;;4.07;;
69979;SDS011;57318;56.232;43.944;2023-04-09T04:53:05;10.53;;;4.30;;
69979;SDS011;57318;56.232;43.944;2023-04-09T04:55:33;7.83;;;4.10;;
69979;SDS011;57318;56.232;43.944;2023-04-09T04:58:00;5.78;;;3.90;;
69979;SDS011;57318;56.232;43.944;2023-04-09T05:00:27;11.02;;;3.70;;
69979;SDS011;57318;56.232;43.944;2023-04-09T05:02:53;12.13;;;5.57;;
69979;SDS011;57318;56.232;43.944;2023-04-09T05:05:18;15.50;;;5.60;;
69979;SDS011;57318;56.232;43.944;2023-04-09T05:07:44;11.57;;;5.53;;
69979;SDS011;57318;56.232;43.944;2023-04-09T05:10:10;22.20;;;6.93;;
69979;SDS011;57318;56.232;43.944;2023-04-09T05:12:36;10.37;;;4.60;;
69979;SDS011;57318;56.232;43.944;2023-04-09T05:15:01;7.90;;;4.57;;
69979;SDS011;57318;56.232;43.944;2023-04-09T05:17:28;9.95;;;4.60;;
69979;SDS011;57318;56.232;43.944;2023-04-09T05:19:54;21.27;;;7.17;;
69979;SDS011;57318;56.232;43.944;2023-04-09T05:22:22;13.20;;;5.10;;
69979;SDS011;57318;56.232;43.944;2023-04-09T05:24:48;16.48;;;5.82;;
69979;SDS011;57318;56.232;43.944;2023-04-09T05:27:13;10.77;;;5.77;;
69979;SDS011;57318;56.232;43.944;2023-04-09T05:29:39;11.50;;;5.43;;
69979;SDS011;57318;56.232;43.944;2023-04-09T05:32:05;12.50;;;5.97;;
69979;SDS011;57318;56.232;43.944;2023-04-09T05:34:33;15.38;;;6.05;;
69979;SDS011;57318;56.232;43.944;2023-04-09T05:36:59;15.82;;;6.20;;
69979;SDS011;57318;56.232;43.944;2023-04-09T05:39:25;12.47;;;6.97;;
69979;SDS011;57318;56.232;43.944;2023-04-09T05:41:51;11.13;;;7.20;;
69979;SDS011;57318;56.232;43.944;2023-04-09T05:44:16;16.80;;;6.73;;
69979;SDS011;57318;56.232;43.944;2023-04-09T05:46:42;20.80;;;7.03;;
69979;SDS011;57318;56.232;43.944;2023-04-09T05:49:08;13.17;;;6.97;;
69979;SDS011;57318;56.232;43.944;2023-04-09T05:51:34;14.73;;;6.77;;
69979;SDS011;57318;56.232;43.944;2023-04-09T05:54:00;15.97;;;8.00;;
69979;SDS011;57318;56.232;43.944;2023-04-09T05:56:26;15.52;;;7.38;;
69979;SDS011;57318;56.232;43.944;2023-04-09T05:58:52;18.13;;;8.80;;
69979;SDS011;57318;56.232;43.944;2023-04-09T06:01:18;28.50;;;8.70;;
69979;SDS011;57318;56.232;43.944;2023-04-09T06:03:44;19.53;;;8.07;;
69979;SDS011;57318;56.232;43.944;2023-04-09T06:06:10;19.90;;;6.80;;
69979;SDS011;57318;56.232;43.944;2023-04-09T06:08:35;13.73;;;6.37;;
69979;SDS011;57318;56.232;43.944;2023-04-09T06:11:01;15.00;;;6.70;;
69979;SDS011;57318;56.232;43.944;2023-04-09T06:13:27;14.07;;;6.07;;
69979;SDS011;57318;56.232;43.944;2023-04-09T06:15:53;11.23;;;6.07;;
69979;SDS011;57318;56.232;43.944;2023-04-09T06:18:19;11.47;;;6.80;;
69979;SDS011;57318;56.232;43.944;2023-04-09T06:20:44;21.43;;;7.50;;
69979;SDS011;57318;56.232;43.944;2023-04-09T06:23:10;16.93;;;7.53;;
69979;SDS011;57318;56.232;43.944;2023-04-09T06:25:36;11.83;;;6.90;;
69979;SDS011;57318;56.232;43.944;2023-04-09T06:28:04;15.07;;;6.30;;
69979;SDS011;57318;56.232;43.944;2023-04-09T06:30:29;17.00;;;7.28;;
69979;SDS011;57318;56.232;43.944;2023-04-09T06:32:56;11.30;;;5.22;;
69979;SDS011;57318;56.232;43.944;2023-04-09T06:35:22;13.00;;;7.10;;
69979;SDS011;57318;56.232;43.944;2023-04-09T06:37:47;16.27;;;7.93;;
69979;SDS011;57318;56.232;43.944;2023-04-09T06:40:13;17.70;;;11.10;;
69979;SDS011;57318;56.232;43.944;2023-04-09T06:42:39;11.88;;;5.93;;
69979;SDS011;57318;56.232;43.944;2023-04-09T06:45:05;13.00;;;5.90;;
69979;SDS011;57318;56.232;43.944;2023-04-09T06:47:35;13.10;;;7.97;;
69979;SDS011;57318;56.232;43.944;2023-04-09T06:50:01;13.68;;;7.93;;
69979;SDS011;57318;56.232;43.944;2023-04-09T06:52:28;20.10;;;7.50;;
69979;SDS011;57318;56.232;43.944;2023-04-09T06:54:53;18.10;;;6.72;;
69979;SDS011;57318;56.232;43.944;2023-04-09T06:57:22;8.00;;;4.72;;
69979;SDS011;57318;56.232;43.944;2023-04-09T06:59:47;9.68;;;5.32;;
69979;SDS011;57318;56.232;43.944;2023-04-09T07:02:13;8.48;;;4.55;;
69979;SDS011;57318;56.232;43.944;2023-04-09T07:07:04;16.38;;;5.68;;
69979;SDS011;57318;56.232;43.944;2023-04-09T07:11:55;20.35;;;7.75;;
69979;SDS011;57318;56.232;43.944;2023-04-09T07:16:49;10.38;;;5.00;;
69979;SDS011;57318;56.232;43.944;2023-04-09T07:21:40;7.78;;;5.00;;
69979;SDS011;57318;56.232;43.944;2023-04-09T07:26:31;7.45;;;5.50;;
69979;SDS011;57318;56.232;43.944;2023-04-09T07:31:23;7.30;;;5.20;;
69979;SDS011;57318;56.232;43.944;2023-04-09T07:33:49;5.75;;;5.10;;
69979;SDS011;57318;56.232;43.944;2023-04-09T07:38:40;9.38;;;6.18;;
69979;SDS011;57318;56.232;43.944;2023-04-09T07:41:09;7.20;;;5.05;;
69979;SDS011;57318;56.232;43.944;2023-04-09T07:43:35;9.93;;;5.40;;
69979;SDS011;57318;56.232;43.944;2023-04-09T07:46:01;10.23;;;5.15;;
69979;SDS011;57318;56.232;43.944;2023-04-09T07:48:26;8.15;;;4.90;;
69979;SDS011;57318;56.232;43.944;2023-04-09T07:50:52;8.40;;;5.03;;
69979;SDS011;57318;56.232;43.944;2023-04-09T07:53:18;6.43;;;4.93;;
69979;SDS011;57318;56.232;43.944;2023-04-09T07:55:43;6.78;;;5.07;;
69979;SDS011;57318;56.232;43.944;2023-04-09T08:00:35;12.38;;;5.70;;
69979;SDS011;57318;56.232;43.944;2023-04-09T08:03:01;9.70;;;5.22;;
69979;SDS011;57318;56.232;43.944;2023-04-09T08:05:28;9.40;;;6.18;;
69979;SDS011;57318;56.232;43.944;2023-04-09T08:07:54;8.68;;;5.85;;
69979;SDS011;57318;56.232;43.944;2023-04-09T08:10:20;8.85;;;5.47;;
69979;SDS011;57318;56.232;43.944;2023-04-09T08:12:46;11.45;;;5.57;;
69979;SDS011;57318;56.232;43.944;2023-04-09T08:15:12;13.27;;;5.60;;
69979;SDS011;57318;56.232;43.944;2023-04-09T08:17:38;12.70;;;5.70;;
69979;SDS011;57318;56.232;43.944;2023-04-09T08:20:04;19.35;;;6.57;;
69979;SDS011;57318;56.232;43.944;2023-04-09T08:22:34;7.78;;;5.00;;
69979;SDS011;57318;56.232;43.944;2023-04-09T08:25:00;7.30;;;5.30;;
69979;SDS011;57318;56.232;43.944;2023-04-09T08:27:26;7.82;;;5.40;;
69979;SDS011;57318;56.232;43.944;2023-04-09T08:29:51;10.02;;;5.60;;
69979;SDS011;57318;56.232;43.944;2023-04-09T08:32:17;9.13;;;5.43;;
69979;SDS011;57318;56.232;43.944;2023-04-09T08:34:43;7.03;;;5.10;;
69979;SDS011;57318;56.232;43.944;2023-04-09T08:37:08;15.45;;;5.90;;
69979;SDS011;57318;56.232;43.944;2023-04-09T08:39:34;11.55;;;6.03;;
69979;SDS011;57318;56.232;43.944;2023-04-09T08:42:00;11.70;;;7.68;;
69979;SDS011;57318;56.232;43.944;2023-04-09T08:44:28;8.13;;;5.95;;
69979;SDS011;57318;56.232;43.944;2023-04-09T08:46:54;10.25;;;5.63;;
69979;SDS011;57318;56.232;43.944;2023-04-09T08:49:19;12.98;;;6.00;;
69979;SDS011;57318;56.232;43.944;2023-04-09T08:51:48;12.45;;;6.45;;
69979;SDS011;57318;56.232;43.944;2023-04-09T08:54:15;7.43;;;5.80;;
69979;SDS011;57318;56.232;43.944;2023-04-09T08:56:42;8.45;;;6.13;;
69979;SDS011;57318;56.232;43.944;2023-04-09T08:59:08;11.80;;;6.13;;
69979;SDS011;57318;56.232;43.944;2023-04-09T09:01:34;10.65;;;6.22;;
69979;SDS011;57318;56.232;43.944;2023-04-09T09:04:07;18.90;;;7.25;;
69979;SDS011;57318;56.232;43.944;2023-04-09T09:06:37;9.25;;;7.40;;
69979;SDS011;57318;56.232;43.944;2023-04-09T09:09:11;20.35;;;7.60;;
69979;SDS011;57318;56.232;43.944;2023-04-09T09:11:39;11.32;;;7.38;;
69979;SDS011;57318;56.232;43.944;2023-04-09T09:14:10;10.77;;;6.60;;
69979;SDS011;57318;56.232;43.944;2023-04-09T09:16:38;10.95;;;6.93;;
69979;SDS011;57318;56.232;43.944;2023-04-09T09:19:07;11.77;;;6.90;;
69979;SDS011;57318;56.232;43.944;2023-04-09T09:21:33;12.40;;;7.15;;
69979;SDS011;57318;56.232;43.944;2023-04-09T09:24:01;9.85;;;6.60;;
69979;SDS011;57318;56.232;43.944;2023-04-09T09:26:27;11.38;;;6.55;;
69979;SDS011;57318;56.232;43.944;2023-04-09T09:28:54;10.48;;;6.10;;
69979;SDS011;57318;56.232;43.944;2023-04-09T09:31:23;13.40;;;6.68;;
69979;SDS011;57318;56.232;43.944;2023-04-09T09:33:49;14.98;;;6.75;;
69979;SDS011;57318;56.232;43.944;2023-04-09T09:36:18;8.07;;;5.78;;
69979;SDS011;57318;56.232;43.944;2023-04-09T09:38:56;10.63;;;6.35;;
69979;SDS011;57318;56.232;43.944;2023-04-09T09:41:26;12.77;;;6.43;;
69979;SDS011;57318;56.232;43.944;2023-04-09T09:43:52;10.57;;;6.10;;
69979;SDS011;57318;56.232;43.944;2023-04-09T09:48:45;9.90;;;6.55;;
69979;SDS011;57318;56.232;43.944;2023-04-09T09:53:38;8.32;;;6.25;;
69979;SDS011;57318;56.232;43.944;2023-04-09T09:56:06;12.27;;;6.30;;
69979;SDS011;57318;56.232;43.944;2023-04-09T09:58:42;10.30;;;6.25;;
69979;SDS011;57318;56.232;43.944;2023-04-09T10:01:13;11.50;;;6.65;;
69979;SDS011;57318;56.232;43.944;2023-04-09T10:03:45;10.82;;;7.53;;
69979;SDS011;57318;56.232;43.944;2023-04-09T10:06:12;8.35;;;7.38;;
69979;SDS011;57318;56.232;43.944;2023-04-09T10:08:39;8.40;;;6.93;;
69979;SDS011;57318;56.232;43.944;2023-04-09T10:11:06;12.73;;;6.65;;
69979;SDS011;57318;56.232;43.944;2023-04-09T10:13:39;18.05;;;7.10;;
69979;SDS011;57318;56.232;43.944;2023-04-09T10:16:10;12.10;;;6.63;;
69979;SDS011;57318;56.232;43.944;2023-04-09T10:18:37;11.38;;;6.68;;
69979;SDS011;57318;56.232;43.944;2023-04-09T10:21:08;8.63;;;6.82;;
69979;SDS011;57318;56.232;43.944;2023-04-09T10:23:42;8.55;;;6.30;;
69979;SDS011;57318;56.232;43.944;2023-04-09T10:26:09;12.43;;;7.50;;
69979;SDS011;57318;56.232;43.944;2023-04-09T10:28:38;11.10;;;6.68;;
69979;SDS011;57318;56.232;43.944;2023-04-09T10:31:05;18.63;;;7.82;;
69979;SDS011;57318;56.232;43.944;2023-04-09T10:33:31;19.33;;;8.30;;
69979;SDS011;57318;56.232;43.944;2023-04-09T10:35:58;13.32;;;7.43;;
69979;SDS011;57318;56.232;43.944;2023-04-09T10:38:32;9.25;;;6.70;;
69979;SDS011;57318;56.232;43.944;2023-04-09T10:43:53;12.85;;;7.15;;
69979;SDS011;57318;56.232;43.944;2023-04-09T10:46:27;8.57;;;7.28;;
69979;SDS011;57318;56.232;43.944;2023-04-09T10:49:06;12.25;;;7.45;;
69979;SDS011;57318;56.232;43.944;2023-04-09T10:51:39;11.05;;;7.10;;
69979;SDS011;57318;56.232;43.944;2023-04-09T10:54:51;11.75;;;7.05;;
69979;SDS011;57318;56.232;43.944;2023-04-09T10:59:36;7.88;;;6.90;;
69979;SDS011;57318;56.232;43.944;2023-04-09T11:02:06;9.23;;;7.07;;
69979;SDS011;57318;56.232;43.944;2023-04-09T11:07:12;10.20;;;7.00;;
69979;SDS011;57318;56.232;43.944;2023-04-09T11:09:42;16.75;;;7.45;;
69979;SDS011;57318;56.232;43.944;2023-04-09T11:12:09;9.18;;;7.22;;
69979;SDS011;57318;56.232;43.944;2023-04-09T11:14:35;10.50;;;7.63;;
69979;SDS011;57318;56.232;43.944;2023-04-09T11:17:04;15.73;;;7.57;;
69979;SDS011;57318;56.232;43.944;2023-04-09T11:19:32;11.27;;;7.05;;
69979;SDS011;57318;56.232;43.944;2023-04-09T11:21:58;9.75;;;7.05;;
69979;SDS011;57318;56.232;43.944;2023-04-09T11:24:24;9.57;;;7.15;;
69979;SDS011;57318;56.232;43.944;2023-04-09T11:26:49;9.25;;;7.20;;
69979;SDS011;57318;56.232;43.944;2023-04-09T11:29:16;10.95;;;7.18;;
69979;SDS011;57318;56.232;43.944;2023-04-09T11:31:42;9.35;;;6.82;;
69979;SDS011;57318;56.232;43.944;2023-04-09T11:34:09;10.98;;;7.80;;
69979;SDS011;57318;56.232;43.944;2023-04-09T11:36:39;11.60;;;8.20;;
69979;SDS011;57318;56.232;43.944;2023-04-09T11:39:05;10.65;;;7.85;;
69979;SDS011;57318;56.232;43.944;2023-04-09T11:41:32;11.82;;;8.07;;
69979;SDS011;57318;56.232;43.944;2023-04-09T11:43:59;14.10;;;7.60;;
69979;SDS011;57318;56.232;43.944;2023-04-09T11:46:27;10.13;;;7.38;;
69979;SDS011;57318;56.232;43.944;2023-04-09T11:48:53;9.82;;;7.28;;
69979;SDS011;57318;56.232;43.944;2023-04-09T11:51:20;10.60;;;7.10;;
69979;SDS011;57318;56.232;43.944;2023-04-09T11:53:48;9.43;;;6.90;;
69979;SDS011;57318;56.232;43.944;2023-04-09T11:56:14;9.15;;;7.28;;
69979;SDS011;57318;56.232;43.944;2023-04-09T11:58:43;11.88;;;7.70;;
69979;SDS011;57318;56.232;43.944;2023-04-09T12:01:11;11.65;;;7.43;;
69979;SDS011;57318;56.232;43.944;2023-04-09T12:06:03;9.52;;;6.97;;
69979;SDS011;57318;56.232;43.944;2023-04-09T12:08:32;9.02;;;6.97;;
69979;SDS011;57318;56.232;43.944;2023-04-09T12:11:10;16.80;;;7.47;;
69979;SDS011;57318;56.232;43.944;2023-04-09T12:13:37;10.70;;;7.50;;
69979;SDS011;57318;56.232;43.944;2023-04-09T12:16:07;15.32;;;8.00;;
69979;SDS011;57318;56.232;43.944;2023-04-09T12:18:36;9.43;;;7.60;;
69979;SDS011;57318;56.232;43.944;2023-04-09T12:21:02;9.27;;;7.60;;
69979;SDS011;57318;56.232;43.944;2023-04-09T12:23:28;10.52;;;7.25;;
69979;SDS011;57318;56.232;43.944;2023-04-09T12:25:55;8.95;;;7.47;;
69979;SDS011;57318;56.232;43.944;2023-04-09T12:28:25;10.93;;;7.57;;
69979;SDS011;57318;56.232;43.944;2023-04-09T12:30:51;11.25;;;7.03;;
69979;SDS011;57318;56.232;43.944;2023-04-09T12:35:43;11.38;;;7.10;;
69979;SDS011;57318;56.232;43.944;2023-04-09T12:38:09;10.05;;;6.47;;
69979;SDS011;57318;56.232;43.944;2023-04-09T12:40:35;10.50;;;6.85;;
69979;SDS011;57318;56.232;43.944;2023-04-09T12:43:01;14.70;;;7.20;;
69979;SDS011;57318;56.232;43.944;2023-04-09T12:45:27;19.25;;;7.45;;
69979;SDS011;57318;56.232;43.944;2023-04-09T12:47:53;10.73;;;7.13;;
69979;SDS011;57318;56.232;43.944;2023-04-09T12:50:19;11.97;;;6.83;;
69979;SDS011;57318;56.232;43.944;2023-04-09T12:52:45;11.10;;;7.60;;
69979;SDS011;57318;56.232;43.944;2023-04-09T12:55:11;12.95;;;6.78;;
69979;SDS011;57318;56.232;43.944;2023-04-09T12:57:38;12.05;;;7.18;;
69979;SDS011;57318;56.232;43.944;2023-04-09T13:00:07;11.88;;;7.35;;
69979;SDS011;57318;56.232;43.944;2023-04-09T13:02:33;13.82;;;7.07;;
69979;SDS011;57318;56.232;43.944;2023-04-09T13:04:59;12.45;;;6.60;;
69979;SDS011;57318;56.232;43.944;2023-04-09T13:07:25;11.77;;;7.00;;
69979;SDS011;57318;56.232;43.944;2023-04-09T13:09:53;9.52;;;6.75;;
69979;SDS011;57318;56.232;43.944;2023-04-09T13:12:20;12.40;;;5.97;;
69979;SDS011;57318;56.232;43.944;2023-04-09T13:14:46;9.10;;;6.10;;
69979;SDS011;57318;56.232;43.944;2023-04-09T13:17:12;15.23;;;6.72;;
69979;SDS011;57318;56.232;43.944;2023-04-09T13:19:41;9.68;;;6.68;;
69979;SDS011;57318;56.232;43.944;2023-04-09T13:22:07;8.83;;;6.20;;
69979;SDS011;57318;56.232;43.944;2023-04-09T13:24:33;11.55;;;6.50;;
69979;SDS011;57318;56.232;43.944;2023-04-09T13:27:00;14.25;;;7.10;;
69979;SDS011;57318;56.232;43.944;2023-04-09T13:29:26;12.65;;;7.68;;
69979;SDS011;57318;56.232;43.944;2023-04-09T13:31:56;12.40;;;7.10;;
69979;SDS011;57318;56.232;43.944;2023-04-09T13:34:22;10.98;;;7.25;;
69979;SDS011;57318;56.232;43.944;2023-04-09T13:36:49;15.63;;;7.78;;
69979;SDS011;57318;56.232;43.944;2023-04-09T13:39:14;13.18;;;8.10;;
69979;SDS011;57318;56.232;43.944;2023-04-09T13:41:40;18.17;;;8.40;;
69979;SDS011;57318;56.232;43.944;2023-04-09T13:44:06;32.58;;;17.63;;
69979;SDS011;57318;56.232;43.944;2023-04-09T13:46:31;10.63;;;7.03;;
69979;SDS011;57318;56.232;43.944;2023-04-09T13:48:57;14.13;;;7.43;;
69979;SDS011;57318;56.232;43.944;2023-04-09T13:51:24;15.43;;;7.78;;
69979;SDS011;57318;56.232;43.944;2023-04-09T13:53:51;14.15;;;7.80;;
69979;SDS011;57318;56.232;43.944;2023-04-09T13:56:17;11.52;;;7.55;;
69979;SDS011;57318;56.232;43.944;2023-04-09T13:58:43;16.45;;;7.97;;
69979;SDS011;57318;56.232;43.944;2023-04-09T14:01:10;12.43;;;8.00;;
69979;SDS011;57318;56.232;43.944;2023-04-09T14:03:36;13.10;;;8.77;;
69979;SDS011;57318;56.232;43.944;2023-04-09T14:06:08;19.17;;;9.18;;
69979;SDS011;57318;56.232;43.944;2023-04-09T14:08:35;11.48;;;8.13;;
69979;SDS011;57318;56.232;43.944;2023-04-09T14:13:26;14.00;;;8.60;;
69979;SDS011;57318;56.232;43.944;2023-04-09T14:15:52;14.95;;;9.25;;
69979;SDS011;57318;56.232;43.944;2023-04-09T14:18:18;24.52;;;10.13;;
69979;SDS011;57318;56.232;43.944;2023-04-09T14:20:43;16.67;;;9.52;;
69979;SDS011;57318;56.232;43.944;2023-04-09T14:23:09;18.77;;;9.93;;
69979;SDS011;57318;56.232;43.944;2023-04-09T14:25:35;14.43;;;8.70;;
69979;SDS011;57318;56.232;43.944;2023-04-09T14:30:27;24.00;;;9.43;;
69979;SDS011;57318;56.232;43.944;2023-04-09T14:32:52;18.98;;;9.60;;
69979;SDS011;57318;56.232;43.944;2023-04-09T14:35:18;18.52;;;9.82;;
69979;SDS011;57318;56.232;43.944;2023-04-09T14:37:44;19.92;;;9.82;;
69979;SDS011;57318;56.232;43.944;2023-04-09T14:40:11;26.33;;;10.02;;
69979;SDS011;57318;56.232;43.944;2023-04-09T14:42:38;22.70;;;9.52;;
69979;SDS011;57318;56.232;43.944;2023-04-09T14:45:04;16.90;;;8.73;;
69979;SDS011;57318;56.232;43.944;2023-04-09T14:47:30;16.98;;;8.82;;
69979;SDS011;57318;56.232;43.944;2023-04-09T14:52:22;21.15;;;8.88;;
69979;SDS011;57318;56.232;43.944;2023-04-09T14:54:48;13.30;;;8.47;;
69979;SDS011;57318;56.232;43.944;2023-04-09T14:57:13;36.10;;;9.37;;
69979;SDS011;57318;56.232;43.944;2023-04-09T14:59:39;33.05;;;9.60;;
69979;SDS011;57318;56.232;43.944;2023-04-09T15:02:05;22.30;;;8.87;;
69979;SDS011;57318;56.232;43.944;2023-04-09T15:04:31;23.52;;;9.30;;
69979;SDS011;57318;56.232;43.944;2023-04-09T15:06:56;21.40;;;7.97;;
69979;SDS011;57318;56.232;43.944;2023-04-09T15:09:22;18.53;;;8.20;;
69979;SDS011;57318;56.232;43.944;2023-04-09T15:11:48;16.77;;;8.20;;
69979;SDS011;57318;56.232;43.944;2023-04-09T15:14:13;17.10;;;7.93;;
69979;SDS011;57318;56.232;43.944;2023-04-09T15:16:39;24.55;;;8.60;;
69979;SDS011;57318;56.232;43.944;2023-04-09T15:19:05;21.53;;;8.87;;
69979;SDS011;57318;56.232;43.944;2023-04-09T15:21:31;26.77;;;8.68;;
69979;SDS011;57318;56.232;43.944;2023-04-09T15:23:57;28.10;;;8.60;;
69979;SDS011;57318;56.232;43.944;2023-04-09T15:26:26;20.48;;;8.20;;
69979;SDS011;57318;56.232;43.944;2023-04-09T15:28:53;58.30;;;10.73;;
69979;SDS011;57318;56.232;43.944;2023-04-09T15:31:25;21.20;;;7.78;;